sensor_id;sensor_type;location;lat;lon;timestamp;P1;durP1;ratioP1;P2;durP2;ratioP2
62256;SDS011;48240;52.962;5.790;2022-12-18T05:00:04;16.17;;;10.27;;
62256;SDS011;48240;52.962;5.790;2022-12-18T05:02:31;18.45;;;10.98;;
62256;SDS011;48240;52.962;5.790;2022-12-18T05:04:57;17.05;;;10.32;;
62256;SDS011;48240;52.962;5.790;2022-12-18T05:07:23;16.55;;;10.52;;
62256;SDS011;48240;52.962;5.790;2022-12-18T05:09:49;17.50;;;10.40;;
62256;SDS011;48240;52.962;5.790;2022-12-18T05:12:16;16.15;;;10.23;;
62256;SDS011;48240;52.962;5.790;2022-12-18T05:14:42;19.08;;;11.25;;
62256;SDS011;48240;52.962;5.790;2022-12-18T05:17:08;18.90;;;11.02;;
62256;SDS011;48240;52.962;5.790;2022-12-18T05:19:34;17.30;;;11.30;;
62256;SDS011;48240;52.962;5.790;2022-12-18T05:22:03;18.55;;;11.13;;
62256;SDS011;48240;52.962;5.790;2022-12-18T05:24:29;17.95;;;11.27;;
62256;SDS011;48240;52.962;5.790;2022-12-18T05:26:55;18.38;;;10.73;;
62256;SDS011;48240;52.962;5.790;2022-12-18T05:29:21;16.83;;;10.55;;
62256;SDS011;48240;52.962;5.790;2022-12-18T05:31:47;17.40;;;10.75;;
62256;SDS011;48240;52.962;5.790;2022-12-18T05:34:13;18.33;;;11.13;;
62256;SDS011;48240;52.962;5.790;2022-12-18T05:36:39;19.08;;;11.57;;
62256;SDS011;48240;52.962;5.790;2022-12-18T05:39:05;17.65;;;11.35;;
62256;SDS011;48240;52.962;5.790;2022-12-18T05:41:31;17.17;;;10.52;;
62256;SDS011;48240;52.962;5.790;2022-12-18T05:43:58;17.45;;;10.88;;
62256;SDS011;48240;52.962;5.790;2022-12-18T05:46:24;18.98;;;12.13;;
62256;SDS011;48240;52.962;5.790;2022-12-18T05:48:50;18.85;;;12.05;;
62256;SDS011;48240;52.962;5.790;2022-12-18T05:51:17;18.38;;;10.57;;
62256;SDS011;48240;52.962;5.790;2022-12-18T05:53:44;18.10;;;11.00;;
62256;SDS011;48240;52.962;5.790;2022-12-18T05:56:17;18.58;;;11.13;;
62256;SDS011;48240;52.962;5.790;2022-12-18T05:58:44;16.80;;;11.00;;
62256;SDS011;48240;52.962;5.790;2022-12-18T06:01:12;17.70;;;11.32;;
62256;SDS011;48240;52.962;5.790;2022-12-18T06:03:38;19.02;;;11.15;;
62256;SDS011;48240;52.962;5.790;2022-12-18T06:06:11;17.15;;;10.93;;
62256;SDS011;48240;52.962;5.790;2022-12-18T06:08:38;18.88;;;11.60;;
62256;SDS011;48240;52.962;5.790;2022-12-18T06:11:04;15.88;;;10.45;;
62256;SDS011;48240;52.962;5.790;2022-12-18T06:13:30;18.00;;;11.43;;
62256;SDS011;48240;52.962;5.790;2022-12-18T06:15:56;17.95;;;11.65;;
62256;SDS011;48240;52.962;5.790;2022-12-18T06:18:22;17.73;;;10.82;;
62256;SDS011;48240;52.962;5.790;2022-12-18T06:20:58;16.67;;;10.65;;
62256;SDS011;48240;52.962;5.790;2022-12-18T06:23:24;17.10;;;10.93;;
62256;SDS011;48240;52.962;5.790;2022-12-18T06:25:50;17.10;;;10.88;;
62256;SDS011;48240;52.962;5.790;2022-12-18T06:28:18;17.77;;;10.45;;
62256;SDS011;48240;52.962;5.790;2022-12-18T06:30:45;17.48;;;10.75;;
62256;SDS011;48240;52.962;5.790;2022-12-18T06:33:11;18.48;;;10.70;;
62256;SDS011;48240;52.962;5.790;2022-12-18T06:35:37;17.40;;;10.32;;
62256;SDS011;48240;52.962;5.790;2022-12-18T06:38:04;19.25;;;11.38;;
62256;SDS011;48240;52.962;5.790;2022-12-18T06:40:30;19.75;;;10.88;;
62256;SDS011;48240;52.962;5.790;2022-12-18T06:42:56;18.00;;;10.60;;
62256;SDS011;48240;52.962;5.790;2022-12-18T06:45:22;17.20;;;10.55;;
62256;SDS011;48240;52.962;5.790;2022-12-18T06:47:49;18.58;;;11.00;;
62256;SDS011;48240;52.962;5.790;2022-12-18T06:50:15;16.52;;;10.45;;
62256;SDS011;48240;52.962;5.790;2022-12-18T06:52:41;16.83;;;10.60;;
62256;SDS011;48240;52.962;5.790;2022-12-18T06:55:09;18.77;;;10.63;;
62256;SDS011;48240;52.962;5.790;2022-12-18T06:57:35;16.33;;;10.60;;
62256;SDS011;48240;52.962;5.790;2022-12-18T07:00:02;17.08;;;10.95;;
62256;SDS011;48240;52.962;5.790;2022-12-18T07:02:29;15.50;;;10.27;;
62256;SDS011;48240;52.962;5.790;2022-12-18T07:04:55;15.25;;;10.27;;
62256;SDS011;48240;52.962;5.790;2022-12-18T07:07:21;18.95;;;10.90;;
62256;SDS011;48240;52.962;5.790;2022-12-18T07:09:48;16.42;;;10.15;;
62256;SDS011;48240;52.962;5.790;2022-12-18T07:12:14;16.92;;;10.65;;
62256;SDS011;48240;52.962;5.790;2022-12-18T07:14:41;16.48;;;10.40;;
62256;SDS011;48240;52.962;5.790;2022-12-18T07:17:07;15.88;;;9.68;;
62256;SDS011;48240;52.962;5.790;2022-12-18T07:19:33;17.83;;;10.05;;
62256;SDS011;48240;52.962;5.790;2022-12-18T07:21:59;18.27;;;10.40;;
62256;SDS011;48240;52.962;5.790;2022-12-18T07:24:26;16.42;;;10.40;;
62256;SDS011;48240;52.962;5.790;2022-12-18T07:26:52;20.00;;;10.90;;
62256;SDS011;48240;52.962;5.790;2022-12-18T07:29:18;16.83;;;10.38;;
62256;SDS011;48240;52.962;5.790;2022-12-18T07:31:44;18.35;;;10.68;;
62256;SDS011;48240;52.962;5.790;2022-12-18T07:34:13;17.05;;;10.05;;
62256;SDS011;48240;52.962;5.790;2022-12-18T07:36:40;16.92;;;10.43;;
62256;SDS011;48240;52.962;5.790;2022-12-18T07:39:06;18.10;;;9.52;;
62256;SDS011;48240;52.962;5.790;2022-12-18T07:41:32;17.63;;;10.43;;
62256;SDS011;48240;52.962;5.790;2022-12-18T07:43:58;15.82;;;9.43;;
62256;SDS011;48240;52.962;5.790;2022-12-18T07:46:24;15.70;;;9.90;;
62256;SDS011;48240;52.962;5.790;2022-12-18T07:48:50;15.50;;;9.13;;
62256;SDS011;48240;52.962;5.790;2022-12-18T07:51:17;16.17;;;9.70;;
62256;SDS011;48240;52.962;5.790;2022-12-18T07:53:43;16.88;;;10.35;;
62256;SDS011;48240;52.962;5.790;2022-12-18T07:56:10;16.13;;;10.15;;
62256;SDS011;48240;52.962;5.790;2022-12-18T07:58:37;16.42;;;10.13;;
62256;SDS011;48240;52.962;5.790;2022-12-18T08:03:29;15.30;;;9.65;;
62256;SDS011;48240;52.962;5.790;2022-12-18T08:06:02;15.23;;;9.48;;
62256;SDS011;48240;52.962;5.790;2022-12-18T08:08:28;17.20;;;10.43;;
62256;SDS011;48240;52.962;5.790;2022-12-18T08:10:54;16.48;;;9.38;;
62256;SDS011;48240;52.962;5.790;2022-12-18T08:13:21;16.20;;;9.30;;
62256;SDS011;48240;52.962;5.790;2022-12-18T08:15:55;16.30;;;10.05;;
62256;SDS011;48240;52.962;5.790;2022-12-18T08:18:21;14.70;;;9.20;;
62256;SDS011;48240;52.962;5.790;2022-12-18T08:20:47;16.05;;;9.10;;
62256;SDS011;48240;52.962;5.790;2022-12-18T08:23:13;15.57;;;9.80;;
62256;SDS011;48240;52.962;5.790;2022-12-18T08:25:39;14.15;;;9.18;;
62256;SDS011;48240;52.962;5.790;2022-12-18T08:28:05;15.77;;;9.25;;
62256;SDS011;48240;52.962;5.790;2022-12-18T08:30:31;16.20;;;8.93;;
62256;SDS011;48240;52.962;5.790;2022-12-18T08:32:57;15.68;;;9.15;;
62256;SDS011;48240;52.962;5.790;2022-12-18T08:35:23;15.57;;;9.52;;
62256;SDS011;48240;52.962;5.790;2022-12-18T08:37:49;14.98;;;9.55;;
62256;SDS011;48240;52.962;5.790;2022-12-18T08:40:15;16.27;;;9.45;;
62256;SDS011;48240;52.962;5.790;2022-12-18T08:42:42;16.30;;;9.18;;
62256;SDS011;48240;52.962;5.790;2022-12-18T08:45:26;14.63;;;8.57;;
62256;SDS011;48240;52.962;5.790;2022-12-18T08:47:53;13.43;;;8.60;;
62256;SDS011;48240;52.962;5.790;2022-12-18T08:50:19;15.23;;;8.50;;
62256;SDS011;48240;52.962;5.790;2022-12-18T08:52:45;14.43;;;8.95;;
62256;SDS011;48240;52.962;5.790;2022-12-18T08:55:11;14.68;;;8.60;;
62256;SDS011;48240;52.962;5.790;2022-12-18T08:57:37;15.85;;;8.98;;
62256;SDS011;48240;52.962;5.790;2022-12-18T09:00:04;16.20;;;8.50;;
62256;SDS011;48240;52.962;5.790;2022-12-18T09:02:30;15.50;;;8.35;;
62256;SDS011;48240;52.962;5.790;2022-12-18T09:04:56;14.40;;;8.38;;
62256;SDS011;48240;52.962;5.790;2022-12-18T09:07:22;13.02;;;8.25;;
62256;SDS011;48240;52.962;5.790;2022-12-18T09:09:48;14.07;;;8.57;;
62256;SDS011;48240;52.962;5.790;2022-12-18T09:12:14;13.60;;;8.40;;
62256;SDS011;48240;52.962;5.790;2022-12-18T09:14:40;16.90;;;8.35;;
62256;SDS011;48240;52.962;5.790;2022-12-18T09:17:06;13.18;;;8.20;;
62256;SDS011;48240;52.962;5.790;2022-12-18T09:19:33;14.25;;;8.25;;
62256;SDS011;48240;52.962;5.790;2022-12-18T09:21:59;14.98;;;8.77;;
62256;SDS011;48240;52.962;5.790;2022-12-18T09:24:25;12.95;;;8.00;;
62256;SDS011;48240;52.962;5.790;2022-12-18T09:26:54;14.57;;;8.00;;
62256;SDS011;48240;52.962;5.790;2022-12-18T09:29:20;13.77;;;8.40;;
62256;SDS011;48240;52.962;5.790;2022-12-18T09:31:46;13.18;;;8.05;;
62256;SDS011;48240;52.962;5.790;2022-12-18T09:34:14;13.25;;;7.60;;
62256;SDS011;48240;52.962;5.790;2022-12-18T09:36:40;13.45;;;7.95;;
62256;SDS011;48240;52.962;5.790;2022-12-18T09:39:06;12.82;;;7.80;;
62256;SDS011;48240;52.962;5.790;2022-12-18T09:46:42;15.05;;;8.18;;
62256;SDS011;48240;52.962;5.790;2022-12-18T09:49:14;12.85;;;7.53;;
62256;SDS011;48240;52.962;5.790;2022-12-18T09:51:45;11.55;;;7.00;;
62256;SDS011;48240;52.962;5.790;2022-12-18T09:54:14;14.20;;;7.35;;
62256;SDS011;48240;52.962;5.790;2022-12-18T09:56:42;10.60;;;7.47;;
62256;SDS011;48240;52.962;5.790;2022-12-18T09:59:25;10.15;;;6.72;;
62256;SDS011;48240;52.962;5.790;2022-12-18T10:01:52;12.40;;;6.93;;
62256;SDS011;48240;52.962;5.790;2022-12-18T10:04:19;12.50;;;7.22;;
62256;SDS011;48240;52.962;5.790;2022-12-18T10:09:20;10.77;;;6.70;;
62256;SDS011;48240;52.962;5.790;2022-12-18T10:14:19;11.55;;;7.22;;
62256;SDS011;48240;52.962;5.790;2022-12-18T10:17:03;11.57;;;7.15;;
62256;SDS011;48240;52.962;5.790;2022-12-18T10:19:41;15.27;;;6.57;;
62256;SDS011;48240;52.962;5.790;2022-12-18T10:22:30;12.37;;;6.90;;
62256;SDS011;48240;52.962;5.790;2022-12-18T10:27:27;9.95;;;6.75;;
62256;SDS011;48240;52.962;5.790;2022-12-18T10:29:54;10.77;;;6.30;;
62256;SDS011;48240;52.962;5.790;2022-12-18T10:32:21;10.93;;;6.18;;
62256;SDS011;48240;52.962;5.790;2022-12-18T10:34:48;14.82;;;6.22;;
62256;SDS011;48240;52.962;5.790;2022-12-18T10:37:15;10.45;;;6.05;;
62256;SDS011;48240;52.962;5.790;2022-12-18T10:39:42;10.25;;;6.18;;
62256;SDS011;48240;52.962;5.790;2022-12-18T10:42:14;9.60;;;6.13;;
62256;SDS011;48240;52.962;5.790;2022-12-18T10:44:41;10.48;;;5.80;;
62256;SDS011;48240;52.962;5.790;2022-12-18T10:47:11;9.88;;;6.07;;
62256;SDS011;48240;52.962;5.790;2022-12-18T10:49:38;12.95;;;6.05;;
62256;SDS011;48240;52.962;5.790;2022-12-18T10:54:38;10.48;;;5.85;;
62256;SDS011;48240;52.962;5.790;2022-12-18T10:57:17;9.52;;;5.60;;
62256;SDS011;48240;52.962;5.790;2022-12-18T10:59:54;10.18;;;5.75;;
62256;SDS011;48240;52.962;5.790;2022-12-18T11:02:28;10.93;;;6.28;;
62256;SDS011;48240;52.962;5.790;2022-12-18T11:04:59;9.63;;;5.95;;
62256;SDS011;48240;52.962;5.790;2022-12-18T11:07:25;9.20;;;5.63;;
62256;SDS011;48240;52.962;5.790;2022-12-18T11:10:05;11.23;;;6.25;;
62256;SDS011;48240;52.962;5.790;2022-12-18T11:12:31;9.48;;;5.40;;
62256;SDS011;48240;52.962;5.790;2022-12-18T11:14:57;8.57;;;5.80;;
62256;SDS011;48240;52.962;5.790;2022-12-18T11:17:31;8.50;;;5.95;;
62256;SDS011;48240;52.962;5.790;2022-12-18T11:20:00;8.38;;;5.20;;
62256;SDS011;48240;52.962;5.790;2022-12-18T11:22:27;7.78;;;5.28;;
62256;SDS011;48240;52.962;5.790;2022-12-18T11:27:23;8.85;;;5.22;;
62256;SDS011;48240;52.962;5.790;2022-12-18T11:29:49;8.82;;;5.55;;
62256;SDS011;48240;52.962;5.790;2022-12-18T11:34:46;8.32;;;5.28;;
62256;SDS011;48240;52.962;5.790;2022-12-18T11:37:13;8.85;;;5.20;;
62256;SDS011;48240;52.962;5.790;2022-12-18T11:39:52;8.75;;;5.25;;
62256;SDS011;48240;52.962;5.790;2022-12-18T11:44:51;7.32;;;5.10;;
62256;SDS011;48240;52.962;5.790;2022-12-18T11:49:44;9.15;;;5.00;;
62256;SDS011;48240;52.962;5.790;2022-12-18T11:54:39;14.73;;;5.40;;
62256;SDS011;48240;52.962;5.790;2022-12-18T12:07:20;8.27;;;4.85;;
62256;SDS011;48240;52.962;5.790;2022-12-18T12:13:07;8.50;;;4.40;;
62256;SDS011;48240;52.962;5.790;2022-12-18T12:17:54;7.47;;;5.00;;
62256;SDS011;48240;52.962;5.790;2022-12-18T12:20:23;8.77;;;4.70;;
62256;SDS011;48240;52.962;5.790;2022-12-18T12:25:33;6.95;;;4.45;;
62256;SDS011;48240;52.962;5.790;2022-12-18T12:30:53;6.88;;;4.43;;
62256;SDS011;48240;52.962;5.790;2022-12-18T12:38:34;5.82;;;4.43;;
62256;SDS011;48240;52.962;5.790;2022-12-18T12:41:04;6.78;;;4.43;;
62256;SDS011;48240;52.962;5.790;2022-12-18T12:46:07;8.93;;;4.10;;
62256;SDS011;48240;52.962;5.790;2022-12-18T12:51:01;7.63;;;4.47;;
62256;SDS011;48240;52.962;5.790;2022-12-18T12:53:33;6.57;;;4.30;;
62256;SDS011;48240;52.962;5.790;2022-12-18T12:56:00;6.40;;;4.05;;
62256;SDS011;48240;52.962;5.790;2022-12-18T12:58:29;8.15;;;3.85;;
62256;SDS011;48240;52.962;5.790;2022-12-18T13:06:11;6.00;;;4.07;;
62256;SDS011;48240;52.962;5.790;2022-12-18T13:08:54;5.93;;;4.07;;
62256;SDS011;48240;52.962;5.790;2022-12-18T13:14:38;6.10;;;4.15;;
62256;SDS011;48240;52.962;5.790;2022-12-18T13:22:22;5.78;;;4.15;;
62256;SDS011;48240;52.962;5.790;2022-12-18T13:24:49;6.80;;;4.50;;
62256;SDS011;48240;52.962;5.790;2022-12-18T13:27:59;6.32;;;4.20;;
62256;SDS011;48240;52.962;5.790;2022-12-18T13:30:19;5.40;;;3.60;;
62256;SDS011;48240;52.962;5.790;2022-12-18T13:33:05;4.57;;;3.60;;
62256;SDS011;48240;52.962;5.790;2022-12-18T13:35:37;5.85;;;3.55;;
62256;SDS011;48240;52.962;5.790;2022-12-18T13:38:18;7.00;;;4.40;;
62256;SDS011;48240;52.962;5.790;2022-12-18T13:43:23;6.45;;;3.92;;
62256;SDS011;48240;52.962;5.790;2022-12-18T13:45:58;14.32;;;4.50;;
62256;SDS011;48240;52.962;5.790;2022-12-18T13:48:25;5.60;;;3.88;;
62256;SDS011;48240;52.962;5.790;2022-12-18T13:50:53;5.63;;;3.90;;
62256;SDS011;48240;52.962;5.790;2022-12-18T13:53:30;7.10;;;4.07;;
62256;SDS011;48240;52.962;5.790;2022-12-18T13:55:58;5.57;;;3.53;;
62256;SDS011;48240;52.962;5.790;2022-12-18T13:58:25;4.35;;;3.35;;
62256;SDS011;48240;52.962;5.790;2022-12-18T14:00:51;5.47;;;3.67;;
62256;SDS011;48240;52.962;5.790;2022-12-18T14:03:22;5.00;;;3.83;;
62256;SDS011;48240;52.962;5.790;2022-12-18T14:08:14;5.25;;;3.70;;
62256;SDS011;48240;52.962;5.790;2022-12-18T14:10:41;4.13;;;3.30;;
62256;SDS011;48240;52.962;5.790;2022-12-18T14:13:08;4.63;;;3.90;;
62256;SDS011;48240;52.962;5.790;2022-12-18T14:15:44;4.80;;;3.40;;
62256;SDS011;48240;52.962;5.790;2022-12-18T14:20:57;4.78;;;3.78;;
62256;SDS011;48240;52.962;5.790;2022-12-18T14:23:28;6.55;;;3.90;;
62256;SDS011;48240;52.962;5.790;2022-12-18T14:25:54;7.55;;;3.80;;
62256;SDS011;48240;52.962;5.790;2022-12-18T14:28:20;6.20;;;4.00;;
62256;SDS011;48240;52.962;5.790;2022-12-18T14:30:47;6.28;;;3.80;;
62256;SDS011;48240;52.962;5.790;2022-12-18T14:33:15;5.72;;;4.18;;
62256;SDS011;48240;52.962;5.790;2022-12-18T14:35:42;5.32;;;3.75;;
62256;SDS011;48240;52.962;5.790;2022-12-18T14:38:54;5.22;;;3.92;;
62256;SDS011;48240;52.962;5.790;2022-12-18T14:40:56;5.05;;;3.80;;
62256;SDS011;48240;52.962;5.790;2022-12-18T14:43:24;4.80;;;3.85;;
62256;SDS011;48240;52.962;5.790;2022-12-18T14:45:50;6.47;;;4.10;;
62256;SDS011;48240;52.962;5.790;2022-12-18T14:48:17;4.93;;;3.60;;
62256;SDS011;48240;52.962;5.790;2022-12-18T14:50:45;7.80;;;4.03;;
62256;SDS011;48240;52.962;5.790;2022-12-18T14:53:20;7.97;;;3.97;;
62256;SDS011;48240;52.962;5.790;2022-12-18T14:55:48;7.85;;;3.50;;
62256;SDS011;48240;52.962;5.790;2022-12-18T14:58:18;17.73;;;11.10;;
62256;SDS011;48240;52.962;5.790;2022-12-18T15:00:44;8.63;;;5.32;;
62256;SDS011;48240;52.962;5.790;2022-12-18T15:03:12;9.10;;;5.32;;
62256;SDS011;48240;52.962;5.790;2022-12-18T15:05:40;8.45;;;4.90;;
62256;SDS011;48240;52.962;5.790;2022-12-18T15:08:24;7.95;;;5.03;;
62256;SDS011;48240;52.962;5.790;2022-12-18T15:10:52;10.77;;;4.82;;
62256;SDS011;48240;52.962;5.790;2022-12-18T15:13:22;9.63;;;4.90;;
62256;SDS011;48240;52.962;5.790;2022-12-18T15:15:49;9.57;;;4.53;;
62256;SDS011;48240;52.962;5.790;2022-12-18T15:18:17;12.20;;;4.70;;
62256;SDS011;48240;52.962;5.790;2022-12-18T15:20:54;9.82;;;5.07;;
62256;SDS011;48240;52.962;5.790;2022-12-18T15:25:48;14.60;;;4.60;;
62256;SDS011;48240;52.962;5.790;2022-12-18T15:28:19;5.90;;;4.40;;
62256;SDS011;48240;52.962;5.790;2022-12-18T15:31:02;13.70;;;4.70;;
62256;SDS011;48240;52.962;5.790;2022-12-18T15:33:33;10.65;;;5.22;;
62256;SDS011;48240;52.962;5.790;2022-12-18T15:36:01;11.07;;;4.18;;
62256;SDS011;48240;52.962;5.790;2022-12-18T15:38:27;12.57;;;4.15;;
62256;SDS011;48240;52.962;5.790;2022-12-18T15:40:54;8.88;;;4.30;;
62256;SDS011;48240;52.962;5.790;2022-12-18T15:43:21;7.70;;;4.55;;
62256;SDS011;48240;52.962;5.790;2022-12-18T15:46:08;7.20;;;4.10;;
62256;SDS011;48240;52.962;5.790;2022-12-18T15:48:35;8.95;;;4.10;;
62256;SDS011;48240;52.962;5.790;2022-12-18T15:51:02;14.88;;;4.50;;
62256;SDS011;48240;52.962;5.790;2022-12-18T15:53:29;8.35;;;4.07;;
62256;SDS011;48240;52.962;5.790;2022-12-18T15:55:56;16.58;;;4.30;;
62256;SDS011;48240;52.962;5.790;2022-12-18T15:58:41;10.00;;;4.10;;
62256;SDS011;48240;52.962;5.790;2022-12-18T16:01:08;7.13;;;3.90;;
62256;SDS011;48240;52.962;5.790;2022-12-18T16:03:35;8.68;;;4.25;;
62256;SDS011;48240;52.962;5.790;2022-12-18T16:06:01;7.32;;;3.97;;
62256;SDS011;48240;52.962;5.790;2022-12-18T16:08:30;7.30;;;3.85;;
62256;SDS011;48240;52.962;5.790;2022-12-18T16:10:56;6.93;;;3.85;;
62256;SDS011;48240;52.962;5.790;2022-12-18T16:13:23;8.27;;;4.22;;
62256;SDS011;48240;52.962;5.790;2022-12-18T16:15:49;10.18;;;3.85;;
62256;SDS011;48240;52.962;5.790;2022-12-18T16:18:16;10.63;;;4.03;;
62256;SDS011;48240;52.962;5.790;2022-12-18T16:20:42;6.28;;;4.10;;
62256;SDS011;48240;52.962;5.790;2022-12-18T16:23:08;8.23;;;4.32;;
62256;SDS011;48240;52.962;5.790;2022-12-18T16:25:34;8.77;;;4.03;;
62256;SDS011;48240;52.962;5.790;2022-12-18T16:28:00;8.75;;;4.03;;
62256;SDS011;48240;52.962;5.790;2022-12-18T16:30:27;7.43;;;4.10;;
62256;SDS011;48240;52.962;5.790;2022-12-18T16:32:55;6.07;;;3.83;;
62256;SDS011;48240;52.962;5.790;2022-12-18T16:35:21;11.40;;;4.03;;
62256;SDS011;48240;52.962;5.790;2022-12-18T16:37:48;7.82;;;4.13;;
62256;SDS011;48240;52.962;5.790;2022-12-18T16:40:14;6.25;;;3.90;;
62256;SDS011;48240;52.962;5.790;2022-12-18T16:42:41;7.07;;;3.80;;
62256;SDS011;48240;52.962;5.790;2022-12-18T16:45:08;8.73;;;4.30;;
62256;SDS011;48240;52.962;5.790;2022-12-18T16:47:35;11.23;;;3.85;;
62256;SDS011;48240;52.962;5.790;2022-12-18T16:50:01;9.27;;;4.15;;
62256;SDS011;48240;52.962;5.790;2022-12-18T16:52:27;8.95;;;4.30;;
62256;SDS011;48240;52.962;5.790;2022-12-18T16:54:54;8.48;;;3.90;;
62256;SDS011;48240;52.962;5.790;2022-12-18T16:57:20;8.95;;;4.90;;
62256;SDS011;48240;52.962;5.790;2022-12-18T16:59:46;11.05;;;3.88;;
62256;SDS011;48240;52.962;5.790;2022-12-18T17:02:13;5.80;;;3.92;;
62256;SDS011;48240;52.962;5.790;2022-12-18T17:04:40;6.28;;;3.58;;
62256;SDS011;48240;52.962;5.790;2022-12-18T17:07:06;8.05;;;3.83;;
62256;SDS011;48240;52.962;5.790;2022-12-18T17:09:32;8.52;;;3.72;;
62256;SDS011;48240;52.962;5.790;2022-12-18T17:11:59;5.65;;;3.50;;
62256;SDS011;48240;52.962;5.790;2022-12-18T17:14:25;7.65;;;3.72;;
62256;SDS011;48240;52.962;5.790;2022-12-18T17:16:52;8.80;;;3.90;;
62256;SDS011;48240;52.962;5.790;2022-12-18T17:19:18;13.85;;;4.10;;
62256;SDS011;48240;52.962;5.790;2022-12-18T17:21:46;5.18;;;3.65;;
62256;SDS011;48240;52.962;5.790;2022-12-18T17:24:13;8.48;;;3.55;;
62256;SDS011;48240;52.962;5.790;2022-12-18T17:26:39;7.82;;;4.05;;
62256;SDS011;48240;52.962;5.790;2022-12-18T17:29:06;8.20;;;4.13;;
62256;SDS011;48240;52.962;5.790;2022-12-18T17:31:33;5.28;;;3.78;;
62256;SDS011;48240;52.962;5.790;2022-12-18T17:34:00;6.50;;;3.35;;
62256;SDS011;48240;52.962;5.790;2022-12-18T17:36:26;7.43;;;3.78;;
62256;SDS011;48240;52.962;5.790;2022-12-18T17:38:56;8.18;;;3.92;;
62256;SDS011;48240;52.962;5.790;2022-12-18T17:41:23;4.65;;;3.47;;
62256;SDS011;48240;52.962;5.790;2022-12-18T17:43:53;6.18;;;3.50;;
62256;SDS011;48240;52.962;5.790;2022-12-18T17:46:19;4.55;;;3.45;;
62256;SDS011;48240;52.962;5.790;2022-12-18T17:48:45;8.90;;;3.78;;
62256;SDS011;48240;52.962;5.790;2022-12-18T17:51:12;9.90;;;3.45;;
62256;SDS011;48240;52.962;5.790;2022-12-18T17:53:38;6.28;;;3.80;;
62256;SDS011;48240;52.962;5.790;2022-12-18T17:56:05;5.97;;;3.78;;
62256;SDS011;48240;52.962;5.790;2022-12-18T17:58:32;8.15;;;3.47;;
62256;SDS011;48240;52.962;5.790;2022-12-18T18:00:58;12.88;;;3.60;;
62256;SDS011;48240;52.962;5.790;2022-12-18T18:03:25;8.98;;;3.38;;
62256;SDS011;48240;52.962;5.790;2022-12-18T18:05:54;20.10;;;3.85;;
62256;SDS011;48240;52.962;5.790;2022-12-18T18:08:21;7.43;;;4.20;;
62256;SDS011;48240;52.962;5.790;2022-12-18T18:10:47;10.63;;;3.63;;
62256;SDS011;48240;52.962;5.790;2022-12-18T18:13:17;9.35;;;3.72;;
62256;SDS011;48240;52.962;5.790;2022-12-18T18:16:02;9.43;;;3.65;;
62256;SDS011;48240;52.962;5.790;2022-12-18T18:18:28;6.10;;;3.72;;
62256;SDS011;48240;52.962;5.790;2022-12-18T18:20:54;9.40;;;4.03;;
62256;SDS011;48240;52.962;5.790;2022-12-18T18:23:20;7.38;;;3.63;;
62256;SDS011;48240;52.962;5.790;2022-12-18T18:25:47;6.50;;;3.83;;
62256;SDS011;48240;52.962;5.790;2022-12-18T18:28:13;7.35;;;3.47;;
62256;SDS011;48240;52.962;5.790;2022-12-18T18:30:39;5.80;;;3.28;;
62256;SDS011;48240;52.962;5.790;2022-12-18T18:33:05;5.75;;;3.53;;
62256;SDS011;48240;52.962;5.790;2022-12-18T18:35:31;8.98;;;3.90;;
62256;SDS011;48240;52.962;5.790;2022-12-18T18:37:57;6.63;;;3.88;;
62256;SDS011;48240;52.962;5.790;2022-12-18T18:40:23;5.53;;;3.85;;
62256;SDS011;48240;52.962;5.790;2022-12-18T18:42:49;4.78;;;3.45;;
62256;SDS011;48240;52.962;5.790;2022-12-18T18:45:15;7.97;;;3.40;;
62256;SDS011;48240;52.962;5.790;2022-12-18T18:47:41;4.72;;;3.33;;
62256;SDS011;48240;52.962;5.790;2022-12-18T18:50:07;4.80;;;3.58;;
62256;SDS011;48240;52.962;5.790;2022-12-18T18:52:36;10.15;;;4.18;;
62256;SDS011;48240;52.962;5.790;2022-12-18T18:55:02;12.52;;;4.10;;
62256;SDS011;48240;52.962;5.790;2022-12-18T18:57:30;6.38;;;3.70;;
62256;SDS011;48240;52.962;5.790;2022-12-18T18:59:57;20.70;;;3.85;;
62256;SDS011;48240;52.962;5.790;2022-12-18T19:02:24;6.70;;;3.60;;
62256;SDS011;48240;52.962;5.790;2022-12-18T19:04:50;6.30;;;3.53;;
62256;SDS011;48240;52.962;5.790;2022-12-18T19:07:16;6.80;;;3.70;;
62256;SDS011;48240;52.962;5.790;2022-12-18T19:09:42;7.88;;;4.05;;
62256;SDS011;48240;52.962;5.790;2022-12-18T19:12:09;6.03;;;3.78;;
62256;SDS011;48240;52.962;5.790;2022-12-18T19:14:54;6.53;;;3.85;;
62256;SDS011;48240;52.962;5.790;2022-12-18T19:17:20;5.00;;;3.65;;
62256;SDS011;48240;52.962;5.790;2022-12-18T19:19:46;9.10;;;3.58;;
62256;SDS011;48240;52.962;5.790;2022-12-18T19:22:13;7.55;;;3.88;;
62256;SDS011;48240;52.962;5.790;2022-12-18T19:24:39;6.57;;;3.70;;
62256;SDS011;48240;52.962;5.790;2022-12-18T19:27:05;7.68;;;3.90;;
62256;SDS011;48240;52.962;5.790;2022-12-18T19:29:34;11.07;;;3.65;;
62256;SDS011;48240;52.962;5.790;2022-12-18T19:32:00;6.53;;;3.75;;
62256;SDS011;48240;52.962;5.790;2022-12-18T19:34:26;7.88;;;3.85;;
62256;SDS011;48240;52.962;5.790;2022-12-18T19:36:52;10.88;;;4.18;;
62256;SDS011;48240;52.962;5.790;2022-12-18T19:39:19;9.00;;;4.10;;
62256;SDS011;48240;52.962;5.790;2022-12-18T19:41:45;6.00;;;4.10;;
62256;SDS011;48240;52.962;5.790;2022-12-18T19:44:12;5.88;;;3.92;;
62256;SDS011;48240;52.962;5.790;2022-12-18T19:46:39;6.82;;;3.80;;
62256;SDS011;48240;52.962;5.790;2022-12-18T19:49:10;9.02;;;4.45;;
62256;SDS011;48240;52.962;5.790;2022-12-18T19:51:36;7.03;;;4.32;;
62256;SDS011;48240;52.962;5.790;2022-12-18T19:54:03;7.43;;;4.32;;
62256;SDS011;48240;52.962;5.790;2022-12-18T19:56:30;8.60;;;4.95;;
62256;SDS011;48240;52.962;5.790;2022-12-18T19:58:56;7.82;;;4.97;;
62256;SDS011;48240;52.962;5.790;2022-12-18T20:01:23;9.45;;;4.03;;
62256;SDS011;48240;52.962;5.790;2022-12-18T20:03:49;7.60;;;5.05;;
62256;SDS011;48240;52.962;5.790;2022-12-18T20:06:26;10.27;;;4.65;;
62256;SDS011;48240;52.962;5.790;2022-12-18T20:08:53;7.32;;;4.88;;
62256;SDS011;48240;52.962;5.790;2022-12-18T20:11:19;6.28;;;4.75;;
62256;SDS011;48240;52.962;5.790;2022-12-18T20:13:45;7.53;;;4.78;;
62256;SDS011;48240;52.962;5.790;2022-12-18T20:16:11;11.38;;;5.68;;
62256;SDS011;48240;52.962;5.790;2022-12-18T20:18:38;8.27;;;5.10;;
62256;SDS011;48240;52.962;5.790;2022-12-18T20:21:04;8.27;;;5.05;;
62256;SDS011;48240;52.962;5.790;2022-12-18T20:23:30;9.63;;;5.18;;
62256;SDS011;48240;52.962;5.790;2022-12-18T20:25:56;7.72;;;5.53;;
62256;SDS011;48240;52.962;5.790;2022-12-18T20:28:23;9.40;;;5.90;;
62256;SDS011;48240;52.962;5.790;2022-12-18T20:30:49;8.45;;;5.15;;
62256;SDS011;48240;52.962;5.790;2022-12-18T20:33:15;8.90;;;5.47;;
62256;SDS011;48240;52.962;5.790;2022-12-18T20:35:41;11.30;;;6.20;;
62256;SDS011;48240;52.962;5.790;2022-12-18T20:38:07;8.73;;;6.13;;
62256;SDS011;48240;52.962;5.790;2022-12-18T20:40:34;11.68;;;7.70;;
62256;SDS011;48240;52.962;5.790;2022-12-18T20:43:00;12.73;;;6.93;;
62256;SDS011;48240;52.962;5.790;2022-12-18T20:45:27;8.98;;;6.43;;
62256;SDS011;48240;52.962;5.790;2022-12-18T20:47:53;17.95;;;6.38;;
62256;SDS011;48240;52.962;5.790;2022-12-18T20:50:19;9.73;;;6.60;;
62256;SDS011;48240;52.962;5.790;2022-12-18T20:52:46;10.27;;;6.30;;
62256;SDS011;48240;52.962;5.790;2022-12-18T20:55:12;12.25;;;7.13;;
62256;SDS011;48240;52.962;5.790;2022-12-18T20:57:38;9.68;;;5.78;;
62256;SDS011;48240;52.962;5.790;2022-12-18T21:00:11;8.23;;;5.80;;
62256;SDS011;48240;52.962;5.790;2022-12-18T21:02:37;8.25;;;5.90;;
62256;SDS011;48240;52.962;5.790;2022-12-18T21:05:03;8.57;;;6.38;;
62256;SDS011;48240;52.962;5.790;2022-12-18T21:07:29;9.45;;;6.03;;